sensor_id;sensor_type;location;lat;lon;timestamp;P1;durP1;ratioP1;P2;durP2;ratioP2
61938;SDS011;47897;50.322;18.892;2022-11-20T00:01:25;288.00;;;121.70;;
61938;SDS011;47897;50.322;18.892;2022-11-20T00:03:53;292.80;;;125.50;;
61938;SDS011;47897;50.322;18.892;2022-11-20T00:06:20;262.30;;;109.00;;
61938;SDS011;47897;50.322;18.892;2022-11-20T00:08:47;255.70;;;110.80;;
61938;SDS011;47897;50.322;18.892;2022-11-20T00:11:15;279.30;;;125.30;;
61938;SDS011;47897;50.322;18.892;2022-11-20T00:13:46;282.30;;;123.10;;
61938;SDS011;47897;50.322;18.892;2022-11-20T00:16:13;311.40;;;125.70;;
61938;SDS011;47897;50.322;18.892;2022-11-20T00:18:40;285.90;;;118.80;;
61938;SDS011;47897;50.322;18.892;2022-11-20T00:21:13;289.40;;;121.80;;
61938;SDS011;47897;50.322;18.892;2022-11-20T00:23:40;285.00;;;118.40;;
61938;SDS011;47897;50.322;18.892;2022-11-20T00:26:08;289.10;;;117.10;;
61938;SDS011;47897;50.322;18.892;2022-11-20T00:28:35;291.90;;;115.90;;
61938;SDS011;47897;50.322;18.892;2022-11-20T00:31:06;275.70;;;117.50;;
61938;SDS011;47897;50.322;18.892;2022-11-20T00:33:33;261.10;;;117.30;;
61938;SDS011;47897;50.322;18.892;2022-11-20T00:36:01;268.00;;;113.70;;
61938;SDS011;47897;50.322;18.892;2022-11-20T00:38:29;288.70;;;120.00;;
61938;SDS011;47897;50.322;18.892;2022-11-20T00:40:56;269.60;;;117.00;;
61938;SDS011;47897;50.322;18.892;2022-11-20T00:43:23;235.70;;;96.90;;
61938;SDS011;47897;50.322;18.892;2022-11-20T00:45:50;273.20;;;113.90;;
61938;SDS011;47897;50.322;18.892;2022-11-20T00:48:17;285.00;;;122.10;;
61938;SDS011;47897;50.322;18.892;2022-11-20T00:50:44;269.10;;;116.80;;
61938;SDS011;47897;50.322;18.892;2022-11-20T00:53:10;270.50;;;116.10;;
61938;SDS011;47897;50.322;18.892;2022-11-20T00:55:37;275.40;;;120.10;;
61938;SDS011;47897;50.322;18.892;2022-11-20T00:58:03;269.40;;;117.90;;
61938;SDS011;47897;50.322;18.892;2022-11-20T01:00:30;281.80;;;118.50;;
61938;SDS011;47897;50.322;18.892;2022-11-20T01:02:57;282.90;;;115.90;;
61938;SDS011;47897;50.322;18.892;2022-11-20T01:05:23;270.30;;;111.80;;
61938;SDS011;47897;50.322;18.892;2022-11-20T01:07:50;266.40;;;114.30;;
61938;SDS011;47897;50.322;18.892;2022-11-20T01:10:16;262.50;;;116.40;;
61938;SDS011;47897;50.322;18.892;2022-11-20T01:12:44;272.20;;;113.20;;
61938;SDS011;47897;50.322;18.892;2022-11-20T01:15:30;278.00;;;117.80;;
61938;SDS011;47897;50.322;18.892;2022-11-20T01:17:59;286.10;;;115.40;;
61938;SDS011;47897;50.322;18.892;2022-11-20T01:20:26;279.60;;;115.60;;
61938;SDS011;47897;50.322;18.892;2022-11-20T01:22:53;282.30;;;117.40;;
61938;SDS011;47897;50.322;18.892;2022-11-20T01:25:19;262.00;;;114.40;;
61938;SDS011;47897;50.322;18.892;2022-11-20T01:27:46;251.00;;;110.00;;
61938;SDS011;47897;50.322;18.892;2022-11-20T01:30:12;270.80;;;117.90;;
61938;SDS011;47897;50.322;18.892;2022-11-20T01:32:39;280.10;;;116.30;;
61938;SDS011;47897;50.322;18.892;2022-11-20T01:35:06;252.60;;;106.70;;
61938;SDS011;47897;50.322;18.892;2022-11-20T01:37:32;270.90;;;110.10;;
61938;SDS011;47897;50.322;18.892;2022-11-20T01:39:59;274.30;;;115.40;;
61938;SDS011;47897;50.322;18.892;2022-11-20T01:42:26;283.70;;;111.90;;
61938;SDS011;47897;50.322;18.892;2022-11-20T01:47:57;266.10;;;109.40;;
61938;SDS011;47897;50.322;18.892;2022-11-20T01:50:25;265.00;;;114.20;;
61938;SDS011;47897;50.322;18.892;2022-11-20T01:55:20;263.30;;;109.50;;
61938;SDS011;47897;50.322;18.892;2022-11-20T01:57:47;256.30;;;105.00;;
61938;SDS011;47897;50.322;18.892;2022-11-20T02:00:16;271.60;;;113.40;;
61938;SDS011;47897;50.322;18.892;2022-11-20T02:02:53;268.90;;;112.80;;
61938;SDS011;47897;50.322;18.892;2022-11-20T02:05:35;254.80;;;113.30;;
61938;SDS011;47897;50.322;18.892;2022-11-20T02:08:04;236.30;;;96.10;;
61938;SDS011;47897;50.322;18.892;2022-11-20T02:10:31;270.60;;;109.50;;
61938;SDS011;47897;50.322;18.892;2022-11-20T02:12:58;263.70;;;105.30;;
61938;SDS011;47897;50.322;18.892;2022-11-20T02:15:43;270.00;;;105.20;;
61938;SDS011;47897;50.322;18.892;2022-11-20T02:18:11;263.30;;;109.90;;
61938;SDS011;47897;50.322;18.892;2022-11-20T02:20:38;267.20;;;111.40;;
61938;SDS011;47897;50.322;18.892;2022-11-20T02:23:13;250.60;;;109.70;;
61938;SDS011;47897;50.322;18.892;2022-11-20T02:25:42;269.40;;;102.80;;
61938;SDS011;47897;50.322;18.892;2022-11-20T02:28:10;277.50;;;112.00;;
61938;SDS011;47897;50.322;18.892;2022-11-20T02:30:36;279.00;;;111.60;;
61938;SDS011;47897;50.322;18.892;2022-11-20T02:33:03;254.60;;;109.70;;
61938;SDS011;47897;50.322;18.892;2022-11-20T02:37:58;258.50;;;109.20;;
61938;SDS011;47897;50.322;18.892;2022-11-20T02:40:25;269.20;;;110.50;;
61938;SDS011;47897;50.322;18.892;2022-11-20T02:42:52;235.30;;;103.60;;
61938;SDS011;47897;50.322;18.892;2022-11-20T02:45:19;264.90;;;113.40;;
61938;SDS011;47897;50.322;18.892;2022-11-20T02:47:45;279.60;;;113.90;;
61938;SDS011;47897;50.322;18.892;2022-11-20T02:50:12;268.40;;;112.00;;
61938;SDS011;47897;50.322;18.892;2022-11-20T02:52:39;278.40;;;115.70;;
61938;SDS011;47897;50.322;18.892;2022-11-20T02:55:06;275.80;;;109.80;;
61938;SDS011;47897;50.322;18.892;2022-11-20T02:57:32;276.70;;;112.80;;
61938;SDS011;47897;50.322;18.892;2022-11-20T02:59:59;272.60;;;115.30;;
61938;SDS011;47897;50.322;18.892;2022-11-20T03:02:29;257.20;;;109.50;;
61938;SDS011;47897;50.322;18.892;2022-11-20T03:04:55;263.40;;;107.80;;
61938;SDS011;47897;50.322;18.892;2022-11-20T03:07:22;263.10;;;112.00;;
61938;SDS011;47897;50.322;18.892;2022-11-20T03:09:49;267.20;;;108.40;;
61938;SDS011;47897;50.322;18.892;2022-11-20T03:12:15;279.00;;;109.20;;
61938;SDS011;47897;50.322;18.892;2022-11-20T03:14:42;262.40;;;107.80;;
61938;SDS011;47897;50.322;18.892;2022-11-20T03:17:09;256.00;;;106.60;;
61938;SDS011;47897;50.322;18.892;2022-11-20T03:19:35;258.00;;;105.70;;
61938;SDS011;47897;50.322;18.892;2022-11-20T03:22:02;254.30;;;104.50;;
61938;SDS011;47897;50.322;18.892;2022-11-20T03:24:29;265.80;;;106.10;;
61938;SDS011;47897;50.322;18.892;2022-11-20T03:26:56;254.80;;;102.60;;
61938;SDS011;47897;50.322;18.892;2022-11-20T03:29:22;253.20;;;100.00;;
61938;SDS011;47897;50.322;18.892;2022-11-20T03:31:49;269.20;;;107.70;;
61938;SDS011;47897;50.322;18.892;2022-11-20T03:34:15;240.20;;;103.50;;
61938;SDS011;47897;50.322;18.892;2022-11-20T03:36:42;259.90;;;103.60;;
61938;SDS011;47897;50.322;18.892;2022-11-20T03:39:09;253.80;;;106.40;;
61938;SDS011;47897;50.322;18.892;2022-11-20T03:41:36;232.60;;;97.10;;
61938;SDS011;47897;50.322;18.892;2022-11-20T03:44:04;227.00;;;95.70;;
61938;SDS011;47897;50.322;18.892;2022-11-20T03:46:31;228.00;;;96.80;;
61938;SDS011;47897;50.322;18.892;2022-11-20T03:48:58;222.10;;;93.10;;
61938;SDS011;47897;50.322;18.892;2022-11-20T03:51:28;201.50;;;89.30;;
61938;SDS011;47897;50.322;18.892;2022-11-20T03:53:56;210.10;;;87.50;;
61938;SDS011;47897;50.322;18.892;2022-11-20T03:56:24;217.40;;;85.80;;
61938;SDS011;47897;50.322;18.892;2022-11-20T03:58:51;205.50;;;86.20;;
61938;SDS011;47897;50.322;18.892;2022-11-20T04:01:19;211.00;;;80.60;;
61938;SDS011;47897;50.322;18.892;2022-11-20T04:03:46;210.30;;;85.30;;
61938;SDS011;47897;50.322;18.892;2022-11-20T04:06:14;232.60;;;96.00;;
61938;SDS011;47897;50.322;18.892;2022-11-20T04:08:41;234.50;;;92.90;;
61938;SDS011;47897;50.322;18.892;2022-11-20T04:13:41;199.60;;;81.60;;
61938;SDS011;47897;50.322;18.892;2022-11-20T04:16:09;208.10;;;83.50;;
61938;SDS011;47897;50.322;18.892;2022-11-20T04:18:36;215.70;;;90.30;;
61938;SDS011;47897;50.322;18.892;2022-11-20T04:21:03;231.70;;;97.00;;
61938;SDS011;47897;50.322;18.892;2022-11-20T04:23:30;227.80;;;90.00;;
61938;SDS011;47897;50.322;18.892;2022-11-20T04:26:04;242.70;;;96.70;;
61938;SDS011;47897;50.322;18.892;2022-11-20T04:28:31;223.70;;;93.30;;
61938;SDS011;47897;50.322;18.892;2022-11-20T04:31:04;222.50;;;92.70;;
61938;SDS011;47897;50.322;18.892;2022-11-20T04:33:32;245.00;;;99.40;;
61938;SDS011;47897;50.322;18.892;2022-11-20T04:36:00;220.70;;;91.60;;
61938;SDS011;47897;50.322;18.892;2022-11-20T04:38:27;237.30;;;92.30;;
61938;SDS011;47897;50.322;18.892;2022-11-20T04:41:01;221.70;;;94.00;;
61938;SDS011;47897;50.322;18.892;2022-11-20T04:43:28;219.00;;;89.20;;
61938;SDS011;47897;50.322;18.892;2022-11-20T04:45:55;203.20;;;86.50;;
61938;SDS011;47897;50.322;18.892;2022-11-20T04:48:22;190.00;;;82.80;;
61938;SDS011;47897;50.322;18.892;2022-11-20T04:50:49;198.10;;;79.50;;
61938;SDS011;47897;50.322;18.892;2022-11-20T04:53:16;194.10;;;82.30;;
61938;SDS011;47897;50.322;18.892;2022-11-20T04:55:43;199.50;;;82.60;;
61938;SDS011;47897;50.322;18.892;2022-11-20T04:58:10;189.30;;;76.50;;
61938;SDS011;47897;50.322;18.892;2022-11-20T05:00:36;194.00;;;82.10;;
61938;SDS011;47897;50.322;18.892;2022-11-20T05:03:03;195.90;;;82.10;;
61938;SDS011;47897;50.322;18.892;2022-11-20T05:05:30;192.40;;;78.80;;
61938;SDS011;47897;50.322;18.892;2022-11-20T05:07:57;185.40;;;80.30;;
61938;SDS011;47897;50.322;18.892;2022-11-20T05:10:24;192.20;;;79.60;;
61938;SDS011;47897;50.322;18.892;2022-11-20T05:12:51;190.10;;;81.50;;
61938;SDS011;47897;50.322;18.892;2022-11-20T05:15:18;196.70;;;80.00;;
61938;SDS011;47897;50.322;18.892;2022-11-20T05:17:48;214.20;;;84.00;;
61938;SDS011;47897;50.322;18.892;2022-11-20T05:20:16;202.00;;;86.80;;
61938;SDS011;47897;50.322;18.892;2022-11-20T05:22:42;200.10;;;83.20;;
61938;SDS011;47897;50.322;18.892;2022-11-20T05:25:09;209.40;;;83.80;;
61938;SDS011;47897;50.322;18.892;2022-11-20T05:27:36;208.30;;;83.50;;
61938;SDS011;47897;50.322;18.892;2022-11-20T05:30:03;215.50;;;87.40;;
61938;SDS011;47897;50.322;18.892;2022-11-20T05:32:30;197.60;;;83.20;;
61938;SDS011;47897;50.322;18.892;2022-11-20T05:34:57;189.30;;;81.70;;
61938;SDS011;47897;50.322;18.892;2022-11-20T05:37:24;200.50;;;80.20;;
61938;SDS011;47897;50.322;18.892;2022-11-20T05:39:50;205.20;;;80.10;;
61938;SDS011;47897;50.322;18.892;2022-11-20T05:42:17;184.20;;;78.30;;
61938;SDS011;47897;50.322;18.892;2022-11-20T05:45:00;187.20;;;75.90;;
61938;SDS011;47897;50.322;18.892;2022-11-20T05:47:27;172.60;;;76.30;;
61938;SDS011;47897;50.322;18.892;2022-11-20T05:49:54;179.60;;;76.70;;
61938;SDS011;47897;50.322;18.892;2022-11-20T05:52:21;187.20;;;77.60;;
61938;SDS011;47897;50.322;18.892;2022-11-20T05:54:48;208.70;;;80.00;;
61938;SDS011;47897;50.322;18.892;2022-11-20T05:57:14;215.20;;;89.60;;
61938;SDS011;47897;50.322;18.892;2022-11-20T05:59:41;219.70;;;87.30;;
61938;SDS011;47897;50.322;18.892;2022-11-20T06:02:08;207.60;;;84.00;;
61938;SDS011;47897;50.322;18.892;2022-11-20T06:04:36;174.10;;;76.60;;
61938;SDS011;47897;50.322;18.892;2022-11-20T06:07:04;190.70;;;74.90;;
61938;SDS011;47897;50.322;18.892;2022-11-20T06:09:31;203.30;;;79.00;;
61938;SDS011;47897;50.322;18.892;2022-11-20T06:11:58;213.90;;;83.00;;
61938;SDS011;47897;50.322;18.892;2022-11-20T06:14:25;414.60;;;129.00;;
61938;SDS011;47897;50.322;18.892;2022-11-20T06:16:51;436.10;;;140.50;;
61938;SDS011;47897;50.322;18.892;2022-11-20T06:19:18;407.10;;;134.90;;
61938;SDS011;47897;50.322;18.892;2022-11-20T06:21:45;351.40;;;121.80;;
61938;SDS011;47897;50.322;18.892;2022-11-20T06:24:13;341.90;;;120.90;;
61938;SDS011;47897;50.322;18.892;2022-11-20T06:26:40;302.80;;;108.10;;
61938;SDS011;47897;50.322;18.892;2022-11-20T06:29:07;200.20;;;79.10;;
61938;SDS011;47897;50.322;18.892;2022-11-20T06:31:33;167.30;;;70.40;;
61938;SDS011;47897;50.322;18.892;2022-11-20T06:34:04;176.00;;;74.10;;
61938;SDS011;47897;50.322;18.892;2022-11-20T06:36:32;173.70;;;75.30;;
61938;SDS011;47897;50.322;18.892;2022-11-20T06:38:59;185.20;;;76.60;;
61938;SDS011;47897;50.322;18.892;2022-11-20T06:41:25;184.10;;;75.80;;
61938;SDS011;47897;50.322;18.892;2022-11-20T06:43:52;173.00;;;72.90;;
61938;SDS011;47897;50.322;18.892;2022-11-20T06:46:19;188.40;;;77.40;;
61938;SDS011;47897;50.322;18.892;2022-11-20T06:48:47;186.60;;;80.00;;
61938;SDS011;47897;50.322;18.892;2022-11-20T06:51:14;193.00;;;76.20;;
61938;SDS011;47897;50.322;18.892;2022-11-20T06:53:41;157.30;;;59.70;;
61938;SDS011;47897;50.322;18.892;2022-11-20T06:56:08;202.80;;;83.00;;
61938;SDS011;47897;50.322;18.892;2022-11-20T06:58:35;196.40;;;87.80;;
61938;SDS011;47897;50.322;18.892;2022-11-20T07:01:04;207.90;;;87.20;;
61938;SDS011;47897;50.322;18.892;2022-11-20T07:03:31;138.40;;;57.30;;
61938;SDS011;47897;50.322;18.892;2022-11-20T07:05:58;191.20;;;75.90;;
61938;SDS011;47897;50.322;18.892;2022-11-20T07:08:26;189.20;;;76.20;;
61938;SDS011;47897;50.322;18.892;2022-11-20T07:10:56;183.90;;;77.10;;
61938;SDS011;47897;50.322;18.892;2022-11-20T07:13:23;219.50;;;91.40;;
61938;SDS011;47897;50.322;18.892;2022-11-20T07:15:49;238.50;;;96.80;;
61938;SDS011;47897;50.322;18.892;2022-11-20T07:18:16;245.60;;;106.50;;
61938;SDS011;47897;50.322;18.892;2022-11-20T07:20:43;228.50;;;100.50;;
61938;SDS011;47897;50.322;18.892;2022-11-20T07:23:09;262.90;;;110.10;;
61938;SDS011;47897;50.322;18.892;2022-11-20T07:25:36;235.80;;;104.90;;
61938;SDS011;47897;50.322;18.892;2022-11-20T07:28:03;244.70;;;108.70;;
61938;SDS011;47897;50.322;18.892;2022-11-20T07:30:30;271.90;;;117.50;;
61938;SDS011;47897;50.322;18.892;2022-11-20T07:32:56;282.00;;;120.30;;
61938;SDS011;47897;50.322;18.892;2022-11-20T07:35:24;276.40;;;119.20;;
61938;SDS011;47897;50.322;18.892;2022-11-20T07:37:51;299.10;;;126.70;;
61938;SDS011;47897;50.322;18.892;2022-11-20T07:40:18;286.20;;;124.30;;
61938;SDS011;47897;50.322;18.892;2022-11-20T07:42:48;283.40;;;117.10;;
61938;SDS011;47897;50.322;18.892;2022-11-20T07:45:16;282.00;;;117.00;;
61938;SDS011;47897;50.322;18.892;2022-11-20T07:47:42;262.50;;;112.60;;
61938;SDS011;47897;50.322;18.892;2022-11-20T07:50:09;275.80;;;115.50;;
61938;SDS011;47897;50.322;18.892;2022-11-20T07:52:36;274.30;;;121.10;;
61938;SDS011;47897;50.322;18.892;2022-11-20T07:55:03;268.20;;;115.70;;
61938;SDS011;47897;50.322;18.892;2022-11-20T07:57:30;243.70;;;104.50;;
61938;SDS011;47897;50.322;18.892;2022-11-20T07:59:57;239.60;;;101.00;;
61938;SDS011;47897;50.322;18.892;2022-11-20T08:02:23;234.40;;;97.80;;
61938;SDS011;47897;50.322;18.892;2022-11-20T08:04:50;251.80;;;106.40;;
61938;SDS011;47897;50.322;18.892;2022-11-20T08:07:17;243.20;;;105.30;;
61938;SDS011;47897;50.322;18.892;2022-11-20T08:09:44;237.20;;;102.20;;
61938;SDS011;47897;50.322;18.892;2022-11-20T08:12:16;254.00;;;106.50;;
61938;SDS011;47897;50.322;18.892;2022-11-20T08:15:02;305.40;;;128.90;;
61938;SDS011;47897;50.322;18.892;2022-11-20T08:17:29;360.80;;;158.30;;
61938;SDS011;47897;50.322;18.892;2022-11-20T08:19:56;346.90;;;146.20;;
61938;SDS011;47897;50.322;18.892;2022-11-20T08:22:23;340.20;;;140.20;;
61938;SDS011;47897;50.322;18.892;2022-11-20T08:24:54;333.60;;;145.10;;
61938;SDS011;47897;50.322;18.892;2022-11-20T08:27:20;263.50;;;119.20;;
61938;SDS011;47897;50.322;18.892;2022-11-20T08:29:47;241.30;;;103.90;;
61938;SDS011;47897;50.322;18.892;2022-11-20T08:32:13;236.00;;;100.00;;
61938;SDS011;47897;50.322;18.892;2022-11-20T08:34:40;247.50;;;104.40;;
61938;SDS011;47897;50.322;18.892;2022-11-20T08:37:07;226.00;;;99.20;;
61938;SDS011;47897;50.322;18.892;2022-11-20T08:39:33;222.30;;;95.10;;
61938;SDS011;47897;50.322;18.892;2022-11-20T08:42:00;213.80;;;89.10;;
61938;SDS011;47897;50.322;18.892;2022-11-20T08:44:27;215.90;;;85.20;;
61938;SDS011;47897;50.322;18.892;2022-11-20T08:46:53;220.90;;;89.60;;
61938;SDS011;47897;50.322;18.892;2022-11-20T08:49:20;199.70;;;85.10;;
61938;SDS011;47897;50.322;18.892;2022-11-20T08:51:49;167.40;;;74.80;;
61938;SDS011;47897;50.322;18.892;2022-11-20T08:54:18;171.70;;;74.70;;
61938;SDS011;47897;50.322;18.892;2022-11-20T08:56:48;184.50;;;77.30;;
61938;SDS011;47897;50.322;18.892;2022-11-20T08:59:15;175.20;;;76.30;;
61938;SDS011;47897;50.322;18.892;2022-11-20T09:01:42;178.80;;;77.20;;
61938;SDS011;47897;50.322;18.892;2022-11-20T09:04:08;182.80;;;77.10;;
61938;SDS011;47897;50.322;18.892;2022-11-20T09:06:35;149.80;;;64.40;;
61938;SDS011;47897;50.322;18.892;2022-11-20T09:09:02;144.30;;;63.30;;
61938;SDS011;47897;50.322;18.892;2022-11-20T09:11:29;150.60;;;63.80;;
61938;SDS011;47897;50.322;18.892;2022-11-20T09:13:55;157.60;;;65.20;;
61938;SDS011;47897;50.322;18.892;2022-11-20T09:16:22;161.30;;;73.00;;
61938;SDS011;47897;50.322;18.892;2022-11-20T09:18:49;147.10;;;65.80;;
61938;SDS011;47897;50.322;18.892;2022-11-20T09:21:17;151.10;;;64.30;;
61938;SDS011;47897;50.322;18.892;2022-11-20T09:23:44;146.60;;;61.50;;
61938;SDS011;47897;50.322;18.892;2022-11-20T09:26:12;152.60;;;66.50;;
61938;SDS011;47897;50.322;18.892;2022-11-20T09:28:39;138.80;;;65.90;;
61938;SDS011;47897;50.322;18.892;2022-11-20T09:31:14;142.30;;;57.50;;
61938;SDS011;47897;50.322;18.892;2022-11-20T09:33:44;155.20;;;64.60;;
61938;SDS011;47897;50.322;18.892;2022-11-20T09:36:10;126.30;;;55.40;;
61938;SDS011;47897;50.322;18.892;2022-11-20T09:38:37;122.00;;;54.10;;
61938;SDS011;47897;50.322;18.892;2022-11-20T09:41:04;117.10;;;53.10;;
61938;SDS011;47897;50.322;18.892;2022-11-20T09:46:28;109.50;;;50.70;;
61938;SDS011;47897;50.322;18.892;2022-11-20T09:49:03;97.10;;;45.70;;
61938;SDS011;47897;50.322;18.892;2022-11-20T09:56:34;115.30;;;52.20;;
61938;SDS011;47897;50.322;18.892;2022-11-20T09:59:04;122.70;;;53.80;;
61938;SDS011;47897;50.322;18.892;2022-11-20T10:01:33;111.70;;;48.80;;
61938;SDS011;47897;50.322;18.892;2022-11-20T10:06:30;114.50;;;52.70;;
61938;SDS011;47897;50.322;18.892;2022-11-20T10:11:37;110.10;;;51.80;;
61938;SDS011;47897;50.322;18.892;2022-11-20T10:19:09;128.30;;;56.20;;
61938;SDS011;47897;50.322;18.892;2022-11-20T10:29:39;95.50;;;46.70;;
61938;SDS011;47897;50.322;18.892;2022-11-20T10:32:18;105.70;;;46.80;;
61938;SDS011;47897;50.322;18.892;2022-11-20T10:34:48;121.60;;;52.20;;
61938;SDS011;47897;50.322;18.892;2022-11-20T10:37:25;110.00;;;50.30;;
61938;SDS011;47897;50.322;18.892;2022-11-20T10:42:35;102.00;;;47.10;;
61938;SDS011;47897;50.322;18.892;2022-11-20T10:45:16;108.80;;;50.10;;
61938;SDS011;47897;50.322;18.892;2022-11-20T10:47:45;117.60;;;57.40;;
61938;SDS011;47897;50.322;18.892;2022-11-20T10:50:14;115.30;;;56.20;;
61938;SDS011;47897;50.322;18.892;2022-11-20T10:58:01;138.10;;;69.40;;
61938;SDS011;47897;50.322;18.892;2022-11-20T11:00:30;126.40;;;66.90;;
61938;SDS011;47897;50.322;18.892;2022-11-20T11:02:58;116.80;;;55.30;;
61938;SDS011;47897;50.322;18.892;2022-11-20T11:08:01;107.60;;;51.20;;
61938;SDS011;47897;50.322;18.892;2022-11-20T11:10:33;93.90;;;43.50;;
61938;SDS011;47897;50.322;18.892;2022-11-20T11:13:02;82.80;;;39.00;;
61938;SDS011;47897;50.322;18.892;2022-11-20T11:15:39;103.90;;;50.50;;
61938;SDS011;47897;50.322;18.892;2022-11-20T11:18:09;89.30;;;44.10;;
61938;SDS011;47897;50.322;18.892;2022-11-20T11:20:36;112.20;;;49.60;;
61938;SDS011;47897;50.322;18.892;2022-11-20T11:23:03;123.20;;;55.40;;
61938;SDS011;47897;50.322;18.892;2022-11-20T11:25:31;114.90;;;54.20;;
61938;SDS011;47897;50.322;18.892;2022-11-20T11:28:02;105.00;;;48.00;;
61938;SDS011;47897;50.322;18.892;2022-11-20T11:30:29;108.20;;;47.60;;
61938;SDS011;47897;50.322;18.892;2022-11-20T11:33:04;114.50;;;48.40;;
61938;SDS011;47897;50.322;18.892;2022-11-20T11:35:32;97.20;;;43.70;;
61938;SDS011;47897;50.322;18.892;2022-11-20T11:38:11;110.90;;;49.20;;
61938;SDS011;47897;50.322;18.892;2022-11-20T11:40:39;119.90;;;57.40;;
61938;SDS011;47897;50.322;18.892;2022-11-20T11:43:07;165.40;;;70.00;;
61938;SDS011;47897;50.322;18.892;2022-11-20T11:46:03;137.60;;;61.70;;
61938;SDS011;47897;50.322;18.892;2022-11-20T11:48:31;162.50;;;70.10;;
61938;SDS011;47897;50.322;18.892;2022-11-20T11:50:58;138.10;;;61.40;;
61938;SDS011;47897;50.322;18.892;2022-11-20T11:53:25;117.10;;;56.40;;
61938;SDS011;47897;50.322;18.892;2022-11-20T12:06:02;165.90;;;74.30;;
61938;SDS011;47897;50.322;18.892;2022-11-20T12:08:49;137.30;;;61.80;;
61938;SDS011;47897;50.322;18.892;2022-11-20T12:16:17;205.60;;;89.10;;
61938;SDS011;47897;50.322;18.892;2022-11-20T12:18:44;205.90;;;86.60;;
61938;SDS011;47897;50.322;18.892;2022-11-20T12:21:17;191.90;;;82.50;;
61938;SDS011;47897;50.322;18.892;2022-11-20T12:26:58;191.70;;;83.90;;
61938;SDS011;47897;50.322;18.892;2022-11-20T12:29:07;156.50;;;66.60;;
61938;SDS011;47897;50.322;18.892;2022-11-20T12:34:43;153.20;;;59.90;;
61938;SDS011;47897;50.322;18.892;2022-11-20T12:39:50;182.60;;;74.80;;
61938;SDS011;47897;50.322;18.892;2022-11-20T12:42:31;217.10;;;87.50;;
61938;SDS011;47897;50.322;18.892;2022-11-20T12:45:23;160.60;;;69.80;;
61938;SDS011;47897;50.322;18.892;2022-11-20T12:47:59;168.60;;;70.60;;
61938;SDS011;47897;50.322;18.892;2022-11-20T12:50:40;143.00;;;60.20;;
61938;SDS011;47897;50.322;18.892;2022-11-20T13:01:34;160.60;;;73.90;;
61938;SDS011;47897;50.322;18.892;2022-11-20T13:06:45;171.90;;;69.60;;
61938;SDS011;47897;50.322;18.892;2022-11-20T13:09:13;138.70;;;60.40;;
61938;SDS011;47897;50.322;18.892;2022-11-20T13:16:48;168.60;;;70.70;;
61938;SDS011;47897;50.322;18.892;2022-11-20T13:19:16;139.70;;;59.30;;
61938;SDS011;47897;50.322;18.892;2022-11-20T13:21:47;144.40;;;58.90;;
61938;SDS011;47897;50.322;18.892;2022-11-20T13:26:45;155.50;;;62.50;;
61938;SDS011;47897;50.322;18.892;2022-11-20T13:29:16;162.00;;;66.60;;
61938;SDS011;47897;50.322;18.892;2022-11-20T13:31:44;154.00;;;68.10;;
61938;SDS011;47897;50.322;18.892;2022-11-20T13:34:12;146.80;;;59.90;;
61938;SDS011;47897;50.322;18.892;2022-11-20T13:37:01;136.60;;;60.30;;
61938;SDS011;47897;50.322;18.892;2022-11-20T13:39:28;137.20;;;59.10;;
61938;SDS011;47897;50.322;18.892;2022-11-20T13:41:56;131.70;;;53.70;;
61938;SDS011;47897;50.322;18.892;2022-11-20T13:46:50;158.00;;;66.20;;
61938;SDS011;47897;50.322;18.892;2022-11-20T14:02:25;181.40;;;76.80;;
61938;SDS011;47897;50.322;18.892;2022-11-20T14:04:55;178.10;;;78.50;;
61938;SDS011;47897;50.322;18.892;2022-11-20T14:07:24;190.50;;;82.40;;
61938;SDS011;47897;50.322;18.892;2022-11-20T14:09:52;212.90;;;91.70;;
61938;SDS011;47897;50.322;18.892;2022-11-20T14:12:32;194.70;;;86.00;;
61938;SDS011;47897;50.322;18.892;2022-11-20T14:15:00;207.60;;;90.90;;
61938;SDS011;47897;50.322;18.892;2022-11-20T14:17:31;208.60;;;82.80;;
61938;SDS011;47897;50.322;18.892;2022-11-20T14:19:59;255.00;;;101.90;;
61938;SDS011;47897;50.322;18.892;2022-11-20T14:22:27;249.10;;;108.10;;
61938;SDS011;47897;50.322;18.892;2022-11-20T14:25:04;227.50;;;96.40;;
61938;SDS011;47897;50.322;18.892;2022-11-20T14:27:38;244.00;;;102.50;;
61938;SDS011;47897;50.322;18.892;2022-11-20T14:30:06;318.20;;;130.60;;
61938;SDS011;47897;50.322;18.892;2022-11-20T14:32:38;306.90;;;122.80;;
61938;SDS011;47897;50.322;18.892;2022-11-20T14:35:09;314.80;;;131.80;;
61938;SDS011;47897;50.322;18.892;2022-11-20T14:40:25;257.80;;;102.20;;
61938;SDS011;47897;50.322;18.892;2022-11-20T14:42:50;243.50;;;101.90;;
61938;SDS011;47897;50.322;18.892;2022-11-20T14:45:17;215.80;;;92.90;;
61938;SDS011;47897;50.322;18.892;2022-11-20T14:47:44;218.50;;;96.60;;
61938;SDS011;47897;50.322;18.892;2022-11-20T14:50:22;223.10;;;96.00;;
61938;SDS011;47897;50.322;18.892;2022-11-20T14:52:50;235.30;;;93.50;;
61938;SDS011;47897;50.322;18.892;2022-11-20T14:55:27;208.20;;;92.80;;
61938;SDS011;47897;50.322;18.892;2022-11-20T14:57:55;211.00;;;80.30;;
61938;SDS011;47897;50.322;18.892;2022-11-20T15:00:22;159.70;;;68.60;;
61938;SDS011;47897;50.322;18.892;2022-11-20T15:02:50;169.40;;;66.20;;
61938;SDS011;47897;50.322;18.892;2022-11-20T15:05:18;185.80;;;74.10;;
61938;SDS011;47897;50.322;18.892;2022-11-20T15:07:46;166.90;;;73.70;;
61938;SDS011;47897;50.322;18.892;2022-11-20T15:12:46;126.20;;;50.40;;
61938;SDS011;47897;50.322;18.892;2022-11-20T15:15:15;119.50;;;51.10;;
61938;SDS011;47897;50.322;18.892;2022-11-20T15:17:43;112.20;;;45.10;;
61938;SDS011;47897;50.322;18.892;2022-11-20T15:20:14;117.20;;;49.00;;
61938;SDS011;47897;50.322;18.892;2022-11-20T15:22:41;112.30;;;46.00;;
61938;SDS011;47897;50.322;18.892;2022-11-20T15:25:11;110.70;;;43.80;;
61938;SDS011;47897;50.322;18.892;2022-11-20T15:27:38;116.90;;;46.80;;
61938;SDS011;47897;50.322;18.892;2022-11-20T15:30:23;135.70;;;55.00;;
61938;SDS011;47897;50.322;18.892;2022-11-20T15:32:50;177.50;;;63.40;;
61938;SDS011;47897;50.322;18.892;2022-11-20T15:35:16;166.10;;;70.30;;
61938;SDS011;47897;50.322;18.892;2022-11-20T15:37:43;137.10;;;52.60;;
61938;SDS011;47897;50.322;18.892;2022-11-20T15:40:10;165.20;;;63.80;;
61938;SDS011;47897;50.322;18.892;2022-11-20T15:42:36;173.60;;;70.10;;
61938;SDS011;47897;50.322;18.892;2022-11-20T15:45:03;165.70;;;66.80;;
61938;SDS011;47897;50.322;18.892;2022-11-20T15:47:31;173.10;;;66.40;;
61938;SDS011;47897;50.322;18.892;2022-11-20T15:49:59;156.40;;;63.10;;